Chattanooga, TN (37424)

10:06 AM EST on February 27, 2017 (GMT -0500)
Coolidge Park | | Change Station

Elev 673 ft 35.06 °N, 85.31 °W | Updated 18 seconds ago

Rain
Rain
46.8 °F
Feels Like 47 °F
N
0.0
Wind Variable Wind from SSE
Gusts 0.0 mph

Today
High -- | Low -- °F
--% Chance of Precip.
Yesterday
High -- | Low -- °F
Precip. -- in
Pressure 30.38 in
Visibility 7.0 miles
Clouds Mostly Cloudy 4500 ft
Mostly Cloudy 5500 ft
Overcast 7500 ft
Windchill 47 °F
Dew Point 43 °F
Humidity 87%
Rainfall 0.00 in
Snow Depth Not available.
7:12 AM 6:35 PM
New Moon, 1% visible
METAR KCHA 271453Z 00000KT 7SM -RA BKN045 BKN055 OVC075 07/00 A3038 RMK AO2 RAB26 PRESRR SLP288 P0001 60001 T00720000 53042
Pressure 30.38 in
Visibility 7.0 miles
Clouds Mostly Cloudy 4500 ft
Mostly Cloudy 5500 ft
Overcast 7500 ft
Windchill 47 °F
Dew Point 43 °F
Humidity 87%
Rainfall 0.00 in
Snow Depth Not available.
7:12 AM 6:35 PM
New Moon, 1% visible
METAR KCHA 271453Z 00000KT 7SM -RA BKN045 BKN055 OVC075 07/00 A3038 RMK AO2 RAB26 PRESRR SLP288 P0001 60001 T00720000 53042

Get Your Daily Forecast Email!

Thanks for signing up!

Be on the lookout for a verification email in your inbox.

You'll start receiving the daily forecast at 8 AM.

×

10-Day Weather Forecast

Almanac

Astronomy

Feb. 27, 2017 Rise Set
Actual Time
Civil Twilight
Nautical Twilight
Astronomical Twilight
Moon
Length of Visible Light
Length of Day
Tomorrow will be .
, % of the Moon is Illuminated

Today's Extremes

State Highs State Lows

Community

WunderPhotos

Upload Photos

1,962,540 photos uploaded!

WunderBlog® & News

Nearby

Air Quality

  Air Quality AQ Index Pollutant
Not available.

Snow Depth

Station Depth Elevation

Earthquake Activity

City Distance Mag. Time & Date
Minimum magnitude displayed is 2.5.

Coastal Water Temperatures

Place Temperature

Stations

Nearby Weather Stations

Station Location Temp. Windchill Dew Point Humidity Wind Precip. Elev Updated Type
                   

Watches & Warnings

There are currently no watches in effect.